Map

Track Data

SID SEASON NUMBER BASIN SUBBASIN NAME ISO_TIME NATURE LAT LON WMO_WIND WMO_PRES WMO_AGENCY TRACK_TYPE DIST2LAND LANDFALL IFLAG USA_AGENCY USA_ATCF_ID USA_LAT USA_LON USA_RECORD USA_STATUS USA_WIND USA_PRES USA_SSHS USA_R34_NE USA_R34_SE USA_R34_SW USA_R34_NW USA_R50_NE USA_R50_SE USA_R50_SW USA_R50_NW USA_R64_NE USA_R64_SE USA_R64_SW USA_R64_NW USA_POCI USA_ROCI USA_RMW USA_EYE TOKYO_LAT TOKYO_LON TOKYO_GRADE TOKYO_WIND TOKYO_PRES TOKYO_R50_DIR TOKYO_R50_LONG TOKYO_R50_SHORT TOKYO_R30_DIR TOKYO_R30_LONG TOKYO_R30_SHORT TOKYO_LAND CMA_LAT CMA_LON CMA_CAT CMA_WIND CMA_PRES HKO_LAT HKO_LON HKO_CAT HKO_WIND HKO_PRES NEWDELHI_LAT NEWDELHI_LON NEWDELHI_GRADE NEWDELHI_WIND NEWDELHI_PRES NEWDELHI_CI NEWDELHI_DP NEWDELHI_POCI REUNION_LAT REUNION_LON REUNION_TYPE REUNION_WIND REUNION_PRES REUNION_TNUM REUNION_CI REUNION_RMW REUNION_R34_NE REUNION_R34_SE REUNION_R34_SW REUNION_R34_NW REUNION_R50_NE REUNION_R50_SE REUNION_R50_SW REUNION_R50_NW REUNION_R64_NE REUNION_R64_SE REUNION_R64_SW REUNION_R64_NW BOM_LAT BOM_LON BOM_TYPE BOM_WIND BOM_PRES BOM_TNUM BOM_CI BOM_RMW BOM_R34_NE BOM_R34_SE BOM_R34_SW BOM_R34_NW BOM_R50_NE BOM_R50_SE BOM_R50_SW BOM_R50_NW BOM_R64_NE BOM_R64_SE BOM_R64_SW BOM_R64_NW BOM_ROCI BOM_POCI BOM_EYE BOM_POS_METHOD BOM_PRES_METHOD NADI_LAT NADI_LON NADI_CAT NADI_WIND NADI_PRES WELLINGTON_LAT WELLINGTON_LON WELLINGTON_WIND WELLINGTON_PRES DS824_LAT DS824_LON DS824_STAGE DS824_WIND DS824_PRES TD9636_LAT TD9636_LON TD9636_STAGE TD9636_WIND TD9636_PRES TD9635_LAT TD9635_LON TD9635_WIND TD9635_PRES TD9635_ROCI NEUMANN_LAT NEUMANN_LON NEUMANN_CLASS NEUMANN_WIND NEUMANN_PRES MLC_LAT MLC_LON MLC_CLASS MLC_WIND MLC_PRES USA_GUST BOM_GUST BOM_GUST_PER REUNION_GUST REUNION_GUST_PER USA_SEAHGT USA_SEARAD_NE USA_SEARAD_SE USA_SEARAD_SW USA_SEARAD_NW STORM_SPEED STORM_DIR
1950191N12149 1950 34 WP MM NOT_NAMED 1950-07-09 12:00:00 TS 12.1000 149.400 main 1606 1565 __O___________ -1 12.1000 149.400 0 1008 13 243
1950191N12149 1950 34 WP MM NOT_NAMED 1950-07-09 15:00:00 TS 11.8004 148.790 main 1565 1526 __P___________ -1 11.8004 148.790 0 1008 13 243
1950191N12149 1950 34 WP MM NOT_NAMED 1950-07-09 18:00:00 TS 11.5000 148.200 main 1526 1490 __O___________ -1 11.5000 148.200 0 1008 13 242
1950191N12149 1950 34 WP MM NOT_NAMED 1950-07-09 21:00:00 TS 11.1997 147.630 main 1490 1456 __P___________ -1 11.1997 147.630 0 1007 13 243
1950191N12149 1950 34 WP MM NOT_NAMED 1950-07-10 00:00:00 TS 10.9000 147.000 main 1456 1412 __O___________ -1 10.9000 147.000 0 1007 16 243
1950191N12149 1950 34 WP MM NOT_NAMED 1950-07-10 03:00:00 TS 10.5027 146.207 main 1412 1392 __P___________ -1 10.5027 146.207 0 1007 17 249
1950191N12149 1950 34 WP MM NOT_NAMED 1950-07-10 06:00:00 TS 10.3000 145.400 main 1395 1395 __O___________ -1 10.3000 145.400 0 1007 16 270
1950191N12149 1950 34 WP MM NOT_NAMED 1950-07-10 09:00:00 TS 10.5076 144.608 main 1429 1429 __P___________ -1 10.5076 144.608 0 1006 15 299
1950191N12149 1950 34 WP MM NOT_NAMED 1950-07-10 12:00:00 TS 11.0000 144.100 main 1493 1493 __O___________ -1 11.0000 144.100 0 1006 12 335
1950191N12149 1950 34 WP MM NOT_NAMED 1950-07-10 15:00:00 TS 11.5673 144.100 main 1559 1559 __P___________ -1 11.5673 144.100 0 1005 13 13
1950191N12149 1950 34 WP MM NOT_NAMED 1950-07-10 18:00:00 TS 12.3000 144.400 main 1631 1631 __O___________ -1 12.3000 144.400 0 1005 17 20
1950191N12149 1950 34 WP MM NOT_NAMED 1950-07-10 21:00:00 TS 13.1700 144.712 main 1726 1726 __P___________ -1 13.1700 144.712 0 1005 19 21
1950191N12149 1950 34 WP MM NOT_NAMED 1950-07-11 00:00:00 TS 14.1000 145.100 main 1822 1822 __O___________ -1 14.1000 145.100 0 1005 20 23
1950191N12149 1950 34 WP MM NOT_NAMED 1950-07-11 03:00:00 TS 14.9650 145.500 main 1919 1919 __P___________ -1 14.9650 145.500 0 1004 19 24
1950191N12149 1950 34 WP MM NOT_NAMED 1950-07-11 06:00:00 TS 15.8000 145.900 main 2006 2006 __O___________ -1 15.8000 145.900 0 1004 18 24
1950191N12149 1950 34 WP MM NOT_NAMED 1950-07-11 09:00:00 TS 16.5849 146.265 main 2094 2064 __P___________ -1 16.5849 146.265 0 1003 17 23
1950191N12149 1950 34 WP MM NOT_NAMED 1950-07-11 12:00:00 TS 17.4000 146.600 main 2064 1978 __O___________ -1 17.4000 146.600 0 1003 19 19
1950191N12149 1950 34 WP MM NOT_NAMED 1950-07-11 15:00:00 TS 18.3725 146.922 main 1967 1884 __P___________ -1 18.3725 146.922 0 1003 20 17
1950191N12149 1950 34 WP MM NOT_NAMED 1950-07-11 18:00:00 TS 19.3000 147.200 main 1884 1829 __O___________ -1 19.3000 147.200 0 1003 17 16
1950191N12149 1950 34 WP MM NOT_NAMED 1950-07-11 21:00:00 TS 19.9574 147.408 main 1819 1765 __P___________ -1 19.9574 147.408 0 1002 14 16
1950191N12149 1950 34 WP MM NOT_NAMED 1950-07-12 00:00:00 TS 20.6000 147.600 main 1765 1692 __O___________ -1 20.6000 147.600 1 29 1002 16 16
1950191N12149 1950 34 WP MM NOT_NAMED 1950-07-12 03:00:00 TS 21.4776 147.879 main 1686 1606 __P___________ -1 21.4776 147.879 1 29 1002 19 14
1950191N12149 1950 34 WP MM NOT_NAMED 1950-07-12 06:00:00 TS 22.4000 148.100 main 1606 1533 __O___________ -1 22.4000 148.100 1 29 1002 18 9
1950191N12149 1950 34 WP MM NOT_NAMED 1950-07-12 09:00:00 TS 23.2073 148.190 main 1533 1450 __P___________ -1 23.2073 148.190 1 29 1001 16 0
1950191N12149 1950 34 WP MM NOT_NAMED 1950-07-12 12:00:00 TS 24.0000 148.100 main 1450 1364 __O___________ -1 24.0000 148.100 1 29 1000 17 351
1950191N12149 1950 34 WP MM NOT_NAMED 1950-07-12 15:00:00 TS 24.8714 147.906 main 1354 1252 __P___________ -1 24.8714 147.906 1 33 999 18 340
1950191N12149 1950 34 WP MM NOT_NAMED 1950-07-12 18:00:00 TS 25.7000 147.400 main 1252 1138 __O___________ -1 25.7000 147.400 2 38 998 20 320
1950191N12149 1950 34 WP MM NOT_NAMED 1950-07-12 21:00:00 TS 26.4035 146.456 main 1138 1024 __P___________ -1 26.4035 146.456 2 38 997 23 305
1950191N12149 1950 34 WP MM NOT_NAMED 1950-07-13 00:00:00 TS 27.0000 145.300 main 1019 930 __O___________ -1 27.0000 145.300 2 38 996 23 297
1950191N12149 1950 34 WP MM NOT_NAMED 1950-07-13 03:00:00 TS 27.4487 144.122 main 926 830 __P___________ -1 27.4487 144.122 2 43 995 21 298
1950191N12149 1950 34 WP MM NOT_NAMED 1950-07-13 06:00:00 TS 28.0000 143.200 main 830 733 __O___________ -1 28.0000 143.200 3 48 994 19 322
1950191N12149 1950 34 WP MM NOT_NAMED 1950-07-13 09:00:00 TS 28.9012 142.819 main 722 620 __P___________ -1 28.9012 142.819 3 48 993 20 350
1950191N12149 1950 34 WP MM NOT_NAMED 1950-07-13 12:00:00 TS 30.0000 142.800 main 610 507 __O___________ -1 30.0000 142.800 3 48 992 22 1
1950191N12149 1950 34 WP MM NOT_NAMED 1950-07-13 15:00:00 TS 31.1200 142.889 main 507 417 __P___________ -1 31.1200 142.889 3 48 991 23 6
1950191N12149 1950 34 WP MM NOT_NAMED 1950-07-13 18:00:00 TS 32.3000 143.100 main 408 333 __O___________ -1 32.3000 143.100 3 48 990 24 8
1950191N12149 1950 34 WP MM NOT_NAMED 1950-07-13 21:00:00 TS 33.4775 143.293 main 326 265 __P___________ -1 33.4775 143.293 3 48 990 24 8
1950191N12149 1950 34 WP MM NOT_NAMED 1950-07-14 00:00:00 TS 34.7000 143.500 main 260 245 __O___________ -1 34.7000 143.500 3 48 990 25 8
1950191N12149 1950 34 WP MM NOT_NAMED 1950-07-14 03:00:00 TS 35.9252 143.722 main 252 243 __P___________ -1 35.9252 143.722 3 48 991 26 7
1950191N12149 1950 34 WP MM NOT_NAMED 1950-07-14 06:00:00 TS 37.3000 143.900 main 237 176 __O___________ -1 37.3000 143.900 3 48 992 31 4
1950191N12149 1950 34 WP MM NOT_NAMED 1950-07-14 09:00:00 TS 39.0149 143.981 main 172 159 __P___________ -1 39.0149 143.981 3 48 993 34 1
1950191N12149 1950 34 WP MM NOT_NAMED 1950-07-14 12:00:00 TS 40.7000 144.000 main 149 57 __O___________ -1 40.7000 144.000 3 48 994 30 0
1950191N12149 1950 34 WP MM NOT_NAMED 1950-07-14 15:00:00 TS 42.0272 144.008 main 57 0 __P___________ -1 42.0272 144.008 3 43 995 24 1
1950191N12149 1950 34 WP MM NOT_NAMED 1950-07-14 18:00:00 TS 43.1000 144.000 main 0 0 __O___________ -1 43.1000 144.000 2 38 996 20 359
1950191N12149 1950 34 WP MM NOT_NAMED 1950-07-14 21:00:00 TS 44.0549 144.000 main 0 0 __P___________ -1 44.0549 144.000 2 38 997 17 0
1950191N12149 1950 34 WP MM NOT_NAMED 1950-07-15 00:00:00 TS 44.8000 144.000 main 68 68 __O___________ -1 44.8000 144.000 2 38 998 13 0
1950191N12149 1950 34 WP MM NOT_NAMED 1950-07-15 03:00:00 TS 45.3749 143.985 main 81 51 __P___________ -1 45.3749 143.985 2 38 998 10 1
1950191N12149 1950 34 WP MM NOT_NAMED 1950-07-15 06:00:00 ET 45.8000 144.000 main 51 44 __O___________ -1 45.8000 144.000 9 38 998 8 6
1950191N12149 1950 34 WP MM NOT_NAMED 1950-07-15 09:00:00 ET 46.1500 144.092 main 45 45 __P___________ -1 46.1500 144.092 9 33 999 7 11
1950191N12149 1950 34 WP MM NOT_NAMED 1950-07-15 12:00:00 ET 46.5000 144.200 main 53 53 __O___________ -1 46.5000 144.200 9 29 1000 8 8
1950191N12149 1950 34 WP MM NOT_NAMED 1950-07-15 15:00:00 ET 46.9625 144.265 main 69 69 __P___________ -1 46.9625 144.265 9 29 1000 10 4
1950191N12149 1950 34 WP MM NOT_NAMED 1950-07-15 18:00:00 ET 47.5000 144.300 main 99 __O___________ -1 47.5000 144.300 9 29 1000 11 3

Digital Typhoon Data and Search

About IBTrACS Database

This database is a web-friendly format of International Best Track Archive for Climate Stewardship (IBTrACS), a global best track data archive curated by NOAA dating back to 1842.

Updated: 2021-10-27